Terminal Aerodrome Forecast
Issued by NWS Greer, SC

Home | Current Version | Previous Version | Text Only | Print | Product List | Glossary On
Versions: 1 2 3 4 5 6 7 8 9 10 11 12
000
FTUS42 KGSP 200528
TAFGSP
TAF
KGSP 200528Z 2006/2106 04003KT P6SM OVC090
     FM201000 04006KT P6SM -RA OVC040
     FM201500 04006KT P6SM -RA OVC028
     FM210300 02003KT 4SM BR SCT024=

USA.gov is the U.S. government's official web portal to all federal, state and local government web resources and services.